createdAt,value
2019-04-30T00:00:45.442Z,26.70
2019-04-30T00:03:55.788Z,26.70
2019-04-30T00:06:49.076Z,26.70
2019-04-30T00:09:44.987Z,26.70
2019-04-30T00:12:45.249Z,26.70
2019-04-30T00:15:45.279Z,26.70
2019-04-30T00:18:55.581Z,26.90
2019-04-30T00:21:39.980Z,27.10
2019-04-30T00:24:46.905Z,27.30
2019-04-30T00:27:39.303Z,27.50
2019-04-30T00:30:35.031Z,27.60
2019-04-30T00:33:29.863Z,27.70
2019-04-30T00:36:33.969Z,27.80
2019-04-30T00:39:27.270Z,27.90
2019-04-30T00:42:28.649Z,28.00
2019-04-30T00:45:25.083Z,28.10
2019-04-30T00:48:28.087Z,28.20
2019-04-30T00:51:21.219Z,28.20
2019-04-30T00:54:17.643Z,28.30
2019-04-30T00:57:15.195Z,28.40
2019-04-30T01:00:12.474Z,28.50
2019-04-30T01:03:15.715Z,28.50
2019-04-30T01:06:11.588Z,28.60
2019-04-30T01:09:08.718Z,28.70
2019-04-30T01:12:03.119Z,28.70
2019-04-30T01:15:01.719Z,28.80
2019-04-30T01:17:55.955Z,28.90
2019-04-30T01:20:50.156Z,29.00
2019-04-30T01:23:51.736Z,29.10
2019-04-30T01:26:41.085Z,29.20
2019-04-30T01:29:40.898Z,29.20
2019-04-30T01:32:33.702Z,29.30
2019-04-30T01:35:32.663Z,29.40
2019-04-30T01:38:26.030Z,29.50
2019-04-30T01:41:27.537Z,29.50
2019-04-30T01:44:16.511Z,29.50
2019-04-30T01:47:11.809Z,29.60
2019-04-30T01:50:06.827Z,29.60
2019-04-30T01:53:04.755Z,29.60
2019-04-30T01:56:09.025Z,29.60
2019-04-30T01:59:12.242Z,29.70
2019-04-30T02:02:09.446Z,29.70
2019-04-30T02:05:04.706Z,29.70
2019-04-30T02:08:02.666Z,29.70
2019-04-30T02:11:01.968Z,29.80
2019-04-30T02:14:02.279Z,29.80
2019-04-30T02:16:59.521Z,29.80
2019-04-30T02:19:56.843Z,29.90
2019-04-30T02:22:54.847Z,29.90
2019-04-30T02:25:53.474Z,29.90
2019-04-30T02:28:52.525Z,29.90
2019-04-30T02:31:52.605Z,29.90
2019-04-30T02:34:56.499Z,30.00
2019-04-30T02:38:15.485Z,30.00
2019-04-30T02:41:13.527Z,30.10
2019-04-30T02:44:09.875Z,30.10
2019-04-30T02:47:06.052Z,30.10
2019-04-30T02:50:14.446Z,30.10
2019-04-30T02:53:04.666Z,30.10
2019-04-30T02:56:02.620Z,30.10
2019-04-30T02:59:00.354Z,30.20
2019-04-30T03:01:54.248Z,30.20
2019-04-30T03:04:50.261Z,30.20
2019-04-30T03:07:52.946Z,30.20
2019-04-30T03:10:49.922Z,30.20
2019-04-30T03:13:44.268Z,30.30
2019-04-30T03:16:53.242Z,30.30
2019-04-30T03:20:00.218Z,30.30
2019-04-30T03:22:55.019Z,30.40
2019-04-30T03:25:50.667Z,30.40
2019-04-30T03:28:49.183Z,30.40
2019-04-30T03:31:51.812Z,30.40
2019-04-30T03:34:51.164Z,30.40
2019-04-30T03:37:49.764Z,30.50
2019-04-30T03:40:46.553Z,30.50
2019-04-30T03:43:41.455Z,30.50
2019-04-30T03:46:39.788Z,30.50
2019-04-30T03:49:34.505Z,30.50
2019-04-30T03:52:29.258Z,30.50
2019-04-30T03:55:24.999Z,30.60
2019-04-30T03:58:21.287Z,30.60
2019-04-30T04:01:40.480Z,30.60
2019-04-30T04:04:54.136Z,30.60
2019-04-30T04:08:09.580Z,30.70
2019-04-30T04:11:15.717Z,30.70
2019-04-30T04:14:10.445Z,30.80
2019-04-30T04:17:05.521Z,30.80
2019-04-30T04:20:00.160Z,30.80
2019-04-30T04:22:56.212Z,30.80
2019-04-30T04:25:52.694Z,30.80
2019-04-30T04:28:49.629Z,30.80
2019-04-30T04:31:49.776Z,30.80
2019-04-30T04:34:45.021Z,30.80
2019-04-30T04:37:41.998Z,30.90
2019-04-30T04:40:40.041Z,30.90
2019-04-30T04:43:34.968Z,30.90
2019-04-30T04:46:30.712Z,30.90
2019-04-30T04:49:25.982Z,30.90
2019-04-30T04:52:21.415Z,30.90
2019-04-30T04:55:21.897Z,31.00
2019-04-30T04:58:16.462Z,31.00
2019-04-30T05:01:14.088Z,31.00
2019-04-30T05:04:11.501Z,31.00
2019-04-30T05:07:12.194Z,31.00
2019-04-30T05:10:11.785Z,31.00
2019-04-30T05:13:09.077Z,31.00
2019-04-30T05:16:03.591Z,31.00
2019-04-30T05:19:01.204Z,31.10
2019-04-30T05:21:55.515Z,31.00
2019-04-30T05:24:51.026Z,31.10
2019-04-30T05:27:46.564Z,31.10
2019-04-30T05:30:59.957Z,31.10
2019-04-30T05:33:54.601Z,31.10
2019-04-30T05:36:53.214Z,31.30
2019-04-30T05:39:50.297Z,31.30
2019-04-30T05:42:51.596Z,31.30
2019-04-30T05:45:49.130Z,31.30
2019-04-30T05:48:49.342Z,31.30
2019-04-30T05:51:53.509Z,31.40
2019-04-30T05:54:43.971Z,31.50
2019-04-30T05:57:53.030Z,31.60
2019-04-30T06:01:05.427Z,31.60
2019-04-30T06:04:05.097Z,31.60
2019-04-30T06:07:05.164Z,31.60
2019-04-30T06:10:41.808Z,31.80
2019-04-30T06:14:00.005Z,31.90
2019-04-30T06:17:31.744Z,31.90
2019-04-30T06:20:33.363Z,32.00
2019-04-30T06:23:30.356Z,32.00
2019-04-30T06:26:41.463Z,32.10
2019-04-30T06:29:46.295Z,31.90
2019-04-30T06:32:45.155Z,31.80
2019-04-30T06:35:41.630Z,31.80
2019-04-30T06:38:41.512Z,31.70
2019-04-30T06:41:41.361Z,31.70
2019-04-30T06:44:41.336Z,31.70
2019-04-30T06:47:36.350Z,31.70
2019-04-30T06:50:34.874Z,31.60
2019-04-30T06:53:29.633Z,31.50
2019-04-30T06:56:25.982Z,31.50
2019-04-30T06:59:33.127Z,31.40
2019-04-30T07:02:50.560Z,31.30
2019-04-30T07:06:08.303Z,31.30
2019-04-30T07:13:25.359Z,31.20
2019-04-30T07:16:34.762Z,31.10
2019-04-30T07:19:53.172Z,31.10
2019-04-30T07:22:49.822Z,31.20
2019-04-30T07:25:39.100Z,31.10
2019-04-30T07:28:47.948Z,31.10
2019-04-30T07:31:51.525Z,31.10
2019-04-30T07:34:50.381Z,31.00
2019-04-30T07:38:04.863Z,30.90
2019-04-30T07:41:06.626Z,30.90
2019-04-30T07:44:10.792Z,30.80
2019-04-30T07:47:09.528Z,30.80
2019-04-30T07:50:09.951Z,30.80
2019-04-30T07:53:06.515Z,30.80
2019-04-30T07:56:23.591Z,30.80
2019-04-30T07:59:02.910Z,30.80
2019-04-30T08:02:09.868Z,30.70
2019-04-30T08:05:00.367Z,30.70
2019-04-30T08:08:16.783Z,30.60
2019-04-30T08:11:06.685Z,30.70
2019-04-30T08:14:45.018Z,30.60
2019-04-30T08:18:00.047Z,30.60
2019-04-30T08:20:53.050Z,30.60
2019-04-30T08:24:19.232Z,30.60
2019-04-30T08:27:13.410Z,30.60
2019-04-30T08:30:21.329Z,30.60
2019-04-30T08:33:09.734Z,30.60
2019-04-30T08:36:06.463Z,30.60
2019-04-30T08:39:01.736Z,30.50
2019-04-30T08:41:59.983Z,30.50
2019-04-30T08:44:54.700Z,30.60
2019-04-30T08:47:58.987Z,30.70
2019-04-30T08:55:12.755Z,30.60
2019-04-30T08:58:09.656Z,30.70
2019-04-30T09:00:58.763Z,30.60
2019-04-30T09:03:55.410Z,30.60
2019-04-30T09:06:53.008Z,30.60
2019-04-30T09:09:52.400Z,30.60
2019-04-30T09:12:47.144Z,30.60
2019-04-30T09:15:43.287Z,30.50
2019-04-30T09:18:42.615Z,30.50
2019-04-30T09:21:49.988Z,30.50
2019-04-30T09:24:49.526Z,30.60
2019-04-30T09:27:51.219Z,30.60
2019-04-30T09:30:50.181Z,30.50
2019-04-30T09:33:46.816Z,30.50
2019-04-30T09:36:41.134Z,30.40
2019-04-30T09:39:39.356Z,30.40
2019-04-30T09:42:34.116Z,30.30
2019-04-30T09:45:34.475Z,30.40
2019-04-30T09:48:31.022Z,30.50
2019-04-30T09:51:27.796Z,30.50
2019-04-30T09:54:25.101Z,30.40
2019-04-30T09:57:22.421Z,30.40
2019-04-30T10:00:24.005Z,30.40
2019-04-30T10:03:23.450Z,30.40
2019-04-30T10:06:36.312Z,30.40
2019-04-30T10:09:23.777Z,30.10
2019-04-30T10:12:23.716Z,29.90
2019-04-30T10:15:32.418Z,30.00
2019-04-30T10:18:28.757Z,30.10
2019-04-30T10:21:28.916Z,30.20
2019-04-30T10:24:49.439Z,30.20
2019-04-30T10:27:46.659Z,30.30
2019-04-30T10:31:15.512Z,30.20
2019-04-30T10:34:15.551Z,30.30
2019-04-30T10:37:18.941Z,30.30
2019-04-30T10:40:15.984Z,30.30
2019-04-30T10:43:24.147Z,30.20
2019-04-30T10:46:33.047Z,30.20
2019-04-30T10:49:29.373Z,30.20
2019-04-30T10:52:41.414Z,30.20
2019-04-30T10:55:48.442Z,30.20
2019-04-30T10:59:00.856Z,30.20
2019-04-30T11:06:19.063Z,30.10
2019-04-30T11:09:39.642Z,30.20
2019-04-30T11:12:33.976Z,30.30
2019-04-30T11:15:53.169Z,30.40
2019-04-30T11:19:09.185Z,30.30
2019-04-30T11:23:22.000Z,30.30
2019-04-30T11:26:47.210Z,30.30
2019-04-30T11:30:29.411Z,30.30
2019-04-30T11:38:41.306Z,30.30
2019-04-30T11:41:35.949Z,30.30
2019-04-30T11:44:48.735Z,30.30
2019-04-30T11:47:53.245Z,30.30
2019-04-30T11:50:43.323Z,30.20
2019-04-30T11:54:13.698Z,30.30
2019-04-30T11:57:11.902Z,30.30
2019-04-30T12:00:29.793Z,30.30
2019-04-30T12:03:25.050Z,30.30
2019-04-30T12:06:20.681Z,30.40
2019-04-30T12:09:42.717Z,30.30
2019-04-30T12:12:44.366Z,30.30
2019-04-30T12:15:42.172Z,30.30
2019-04-30T12:18:38.065Z,30.20
2019-04-30T12:21:37.942Z,30.30
2019-04-30T12:24:36.196Z,30.20
2019-04-30T12:27:39.409Z,30.20
2019-04-30T12:30:35.487Z,30.20
2019-04-30T12:33:35.569Z,30.10
2019-04-30T12:36:31.870Z,30.10
2019-04-30T12:39:30.117Z,30.20
2019-04-30T12:42:32.691Z,30.10
2019-04-30T12:45:34.386Z,30.10
2019-04-30T12:49:01.254Z,30.10
2019-04-30T12:52:20.912Z,30.20
2019-04-30T12:55:29.470Z,30.20
2019-04-30T12:58:27.402Z,30.20
2019-04-30T13:01:24.813Z,30.20
2019-04-30T13:04:23.301Z,30.20
2019-04-30T13:07:20.604Z,30.20
2019-04-30T13:10:15.734Z,30.20
2019-04-30T13:13:15.814Z,30.20
2019-04-30T13:16:11.638Z,30.20
2019-04-30T13:19:06.936Z,30.20
2019-04-30T13:22:03.837Z,30.20
2019-04-30T13:25:00.232Z,30.20
2019-04-30T13:28:02.373Z,30.20
2019-04-30T13:31:00.578Z,30.20
2019-04-30T13:34:02.446Z,30.20
2019-04-30T13:36:59.376Z,30.30
2019-04-30T13:40:02.402Z,30.30
2019-04-30T13:42:58.005Z,30.40
2019-04-30T13:45:53.553Z,30.40
2019-04-30T13:48:49.573Z,30.40
2019-04-30T13:51:45.891Z,30.40
2019-04-30T13:54:41.755Z,30.50
2019-04-30T13:57:44.147Z,30.60
2019-04-30T14:00:39.906Z,30.60
2019-04-30T14:03:51.795Z,30.70
2019-04-30T14:06:58.434Z,30.70
2019-04-30T14:09:54.140Z,30.70
2019-04-30T14:12:55.393Z,30.80
2019-04-30T14:15:50.819Z,30.80
2019-04-30T14:18:45.925Z,30.80
2019-04-30T14:21:42.132Z,30.80
2019-04-30T14:24:40.307Z,30.80
2019-04-30T14:27:49.059Z,30.80
2019-04-30T14:30:35.196Z,30.80
2019-04-30T14:33:32.280Z,30.90
2019-04-30T14:36:29.300Z,30.90
2019-04-30T14:39:26.593Z,30.90
2019-04-30T14:42:23.973Z,30.90
2019-04-30T14:45:26.003Z,30.90
2019-04-30T14:48:31.247Z,30.90
2019-04-30T14:51:29.121Z,30.90
2019-04-30T14:54:32.230Z,30.90
2019-04-30T14:57:51.082Z,30.90
2019-04-30T15:01:07.087Z,30.90
2019-04-30T15:04:04.591Z,30.90
2019-04-30T15:07:02.598Z,31.00
2019-04-30T15:09:59.440Z,31.00
2019-04-30T15:12:55.726Z,31.00
2019-04-30T15:15:52.392Z,31.00
2019-04-30T15:18:47.727Z,31.00
2019-04-30T15:21:44.843Z,31.00
2019-04-30T15:24:40.892Z,31.00
2019-04-30T15:27:44.270Z,31.00
2019-04-30T15:30:35.975Z,31.00
2019-04-30T15:33:46.487Z,31.00
2019-04-30T15:36:43.154Z,31.00
2019-04-30T15:39:45.800Z,31.00
2019-04-30T15:42:46.606Z,31.00
2019-04-30T15:45:46.273Z,31.00
2019-04-30T15:48:44.661Z,31.00
2019-04-30T15:51:42.749Z,31.00
2019-04-30T15:54:41.216Z,31.00
2019-04-30T15:57:59.270Z,31.00
2019-04-30T16:00:59.303Z,31.00
2019-04-30T16:03:58.177Z,31.00
2019-04-30T16:06:58.387Z,31.00
2019-04-30T16:10:16.279Z,31.00
2019-04-30T16:13:19.445Z,31.00
2019-04-30T16:16:15.863Z,31.00
2019-04-30T16:19:13.427Z,31.00
2019-04-30T16:22:10.742Z,31.00
2019-04-30T16:25:08.530Z,31.00
2019-04-30T16:28:04.330Z,31.00
2019-04-30T16:30:59.678Z,31.00
2019-04-30T16:33:54.700Z,31.00
2019-04-30T16:36:49.903Z,31.00
2019-04-30T16:39:46.104Z,31.10
2019-04-30T16:42:41.443Z,31.00
2019-04-30T16:45:38.926Z,31.00
2019-04-30T16:48:35.016Z,31.00
2019-04-30T16:51:34.952Z,31.00
2019-04-30T16:54:31.339Z,31.00
2019-04-30T16:57:30.114Z,31.00
2019-04-30T17:00:25.329Z,30.90
2019-04-30T17:03:32.134Z,30.90
2019-04-30T17:06:29.404Z,30.80
2019-04-30T17:09:38.746Z,30.80
2019-04-30T17:12:39.271Z,30.80
2019-04-30T17:15:36.085Z,30.70
2019-04-30T17:18:32.956Z,30.40
2019-04-30T17:21:29.649Z,30.10
2019-04-30T17:24:25.003Z,29.90
2019-04-30T17:27:22.192Z,29.70
2019-04-30T17:30:19.190Z,29.50
2019-04-30T17:33:13.398Z,29.40
2019-04-30T17:36:08.347Z,29.30
2019-04-30T17:39:03.908Z,29.10
2019-04-30T17:42:00.445Z,29.00
2019-04-30T17:44:58.887Z,28.90
2019-04-30T17:47:52.574Z,28.80
2019-04-30T17:50:47.180Z,28.60
2019-04-30T17:54:00.483Z,28.50
2019-04-30T17:56:55.779Z,28.40
2019-04-30T17:59:51.003Z,28.30
2019-04-30T18:02:46.245Z,28.20
2019-04-30T18:05:40.711Z,28.10
2019-04-30T18:08:36.044Z,28.10
2019-04-30T18:11:31.794Z,28.00
2019-04-30T18:14:28.597Z,27.90
2019-04-30T18:17:26.732Z,27.80
2019-04-30T18:20:49.146Z,27.80
2019-04-30T18:24:05.596Z,27.70
2019-04-30T18:27:05.684Z,27.60
2019-04-30T18:30:01.948Z,27.60
2019-04-30T18:32:58.407Z,27.50
2019-04-30T18:35:55.314Z,27.40
2019-04-30T18:38:53.833Z,27.40
2019-04-30T18:41:53.163Z,27.30
2019-04-30T18:44:52.950Z,27.20
2019-04-30T18:47:52.825Z,27.20
2019-04-30T18:50:48.775Z,27.10
2019-04-30T18:53:46.963Z,27.10
2019-04-30T18:56:42.492Z,27.00
2019-04-30T18:59:37.017Z,27.00
2019-04-30T19:02:31.291Z,26.90
2019-04-30T19:05:29.377Z,26.90
2019-04-30T19:08:30.478Z,26.80
2019-04-30T19:11:35.779Z,26.80
2019-04-30T19:14:36.273Z,26.70
2019-04-30T19:17:49.485Z,26.70
2019-04-30T19:20:47.218Z,26.70
2019-04-30T19:23:41.381Z,26.60
2019-04-30T19:26:35.893Z,26.60
2019-04-30T19:29:30.323Z,26.60
2019-04-30T19:32:24.734Z,26.50
2019-04-30T19:35:19.223Z,26.50
2019-04-30T19:38:13.785Z,26.50
2019-04-30T19:41:10.643Z,26.40
2019-04-30T19:44:04.083Z,26.40
2019-04-30T19:46:58.638Z,26.40
2019-04-30T19:49:52.907Z,26.40
2019-04-30T19:52:47.398Z,26.40
2019-04-30T19:55:41.854Z,26.30
2019-04-30T19:58:48.722Z,26.30
2019-04-30T20:01:31.438Z,26.30
2019-04-30T20:04:33.181Z,26.20
2019-04-30T20:07:22.129Z,26.20
2019-04-30T20:10:19.554Z,26.10
2019-04-30T20:13:30.836Z,26.10
2019-04-30T20:16:15.443Z,26.10
2019-04-30T20:19:09.720Z,26.10
2019-04-30T20:22:09.302Z,26.00
2019-04-30T20:25:05.682Z,26.00
2019-04-30T20:28:02.504Z,26.00
2019-04-30T20:30:57.215Z,25.90
2019-04-30T20:33:53.706Z,25.90
2019-04-30T20:36:47.916Z,25.90
2019-04-30T20:39:49.329Z,25.90
2019-04-30T20:42:44.908Z,25.90
2019-04-30T20:45:41.394Z,25.80
2019-04-30T20:48:41.191Z,25.80
2019-04-30T20:51:40.190Z,25.80
2019-04-30T20:54:34.261Z,25.80
2019-04-30T20:57:29.523Z,25.70
2019-04-30T21:00:24.145Z,25.70
2019-04-30T21:03:19.595Z,25.70
2019-04-30T21:06:15.225Z,25.70
2019-04-30T21:09:10.878Z,25.70
2019-04-30T21:12:05.891Z,25.60
2019-04-30T21:15:01.508Z,25.60
2019-04-30T21:17:56.054Z,25.60
2019-04-30T21:20:50.446Z,25.60
2019-04-30T21:23:45.738Z,25.60
2019-04-30T21:26:41.778Z,25.50
2019-04-30T21:29:38.745Z,25.50
2019-04-30T21:33:05.989Z,25.50
2019-04-30T21:36:19.138Z,25.50
2019-04-30T21:39:14.122Z,25.50
2019-04-30T21:42:09.430Z,25.40
2019-04-30T21:45:05.758Z,25.40
2019-04-30T21:48:02.767Z,25.40
2019-04-30T21:50:59.301Z,25.40
2019-04-30T21:53:55.838Z,25.40
2019-04-30T21:56:50.237Z,25.30
2019-04-30T21:59:44.906Z,25.30
2019-04-30T22:02:40.544Z,25.30
2019-04-30T22:05:36.161Z,25.30
2019-04-30T22:08:30.523Z,25.30
2019-04-30T22:11:25.220Z,25.30
2019-04-30T22:14:19.728Z,25.30
2019-04-30T22:17:14.508Z,25.30
2019-04-30T22:20:09.602Z,25.20
2019-04-30T22:23:05.427Z,25.30
2019-04-30T22:25:59.661Z,25.20
2019-04-30T22:28:54.391Z,25.20
2019-04-30T22:31:49.518Z,25.20
2019-04-30T22:34:43.793Z,25.20
2019-04-30T22:37:38.448Z,25.10
2019-04-30T22:40:33.390Z,25.10
2019-04-30T22:43:29.081Z,25.10
2019-04-30T22:46:24.664Z,25.10
2019-04-30T22:49:20.548Z,25.10
2019-04-30T22:52:15.554Z,25.10
2019-04-30T22:55:11.117Z,25.10
2019-04-30T22:58:05.865Z,25.10
2019-04-30T23:01:16.175Z,25.10
2019-04-30T23:04:15.465Z,25.10
2019-04-30T23:07:11.850Z,25.10
2019-04-30T23:10:08.131Z,25.00
2019-04-30T23:13:04.205Z,25.00
2019-04-30T23:15:59.164Z,25.00
2019-04-30T23:18:53.807Z,25.00
2019-04-30T23:21:48.510Z,25.00
2019-04-30T23:24:43.224Z,25.00
2019-04-30T23:27:37.348Z,25.00
2019-04-30T23:30:32.424Z,24.90
2019-04-30T23:33:26.942Z,24.90
2019-04-30T23:36:21.598Z,25.00
2019-04-30T23:39:16.448Z,24.90
2019-04-30T23:42:11.421Z,25.00
2019-04-30T23:45:05.649Z,24.90
2019-04-30T23:48:00.679Z,24.90
2019-04-30T23:50:56.025Z,24.90
2019-04-30T23:53:50.932Z,24.90
2019-04-30T23:56:46.071Z,25.10
2019-04-30T23:59:41.522Z,25.30
